createdAt,value
2019-04-21T00:00:07.861Z,14.23
2019-04-21T00:02:36.365Z,14.23
2019-04-21T00:05:24.945Z,14.13
2019-04-21T00:07:59.213Z,14.08
2019-04-21T00:10:36.077Z,14.01
2019-04-21T00:12:57.417Z,14.03
2019-04-21T00:15:20.433Z,14.03
2019-04-21T00:17:44.494Z,13.98
2019-04-21T00:20:26.102Z,13.98
2019-04-21T00:22:58.800Z,13.99
2019-04-21T00:25:30.910Z,13.88
2019-04-21T00:28:09.237Z,13.85
2019-04-21T00:30:40.095Z,13.86
2019-04-21T00:33:04.579Z,13.84
2019-04-21T00:35:26.509Z,13.93
2019-04-21T00:38:19.598Z,13.98
2019-04-21T00:40:50.416Z,14.00
2019-04-21T00:43:15.085Z,13.99
2019-04-21T00:45:42.255Z,14.01
2019-04-21T00:48:23.649Z,14.01
2019-04-21T00:51:10.994Z,14.02
2019-04-21T00:53:37.117Z,14.00
2019-04-21T00:58:35.951Z,14.08
2019-04-21T01:01:08.845Z,14.02
2019-04-21T01:03:43.518Z,13.94
2019-04-21T01:06:12.678Z,13.96
2019-04-21T01:08:42.668Z,13.93
2019-04-21T01:11:15.334Z,13.99
2019-04-21T01:13:45.452Z,13.91
2019-04-21T01:16:25.659Z,13.92
2019-04-21T01:18:42.672Z,13.99
2019-04-21T01:20:56.394Z,13.96
2019-04-21T01:23:27.442Z,13.95
2019-04-21T01:26:12.197Z,13.85
2019-04-21T01:28:49.555Z,13.83
2019-04-21T01:31:18.500Z,13.77
2019-04-21T01:33:50.942Z,13.69
2019-04-21T01:36:18.103Z,13.66
2019-04-21T01:38:59.145Z,13.68
2019-04-21T01:41:33.478Z,13.73
2019-04-21T01:43:54.565Z,13.74
2019-04-21T01:46:28.433Z,13.69
2019-04-21T01:48:56.788Z,13.64
2019-04-21T01:51:28.313Z,13.63
2019-04-21T01:54:18.495Z,13.60
2019-04-21T01:56:46.258Z,13.58
2019-04-21T01:59:08.995Z,13.49
2019-04-21T02:01:52.310Z,13.44
2019-04-21T02:04:29.436Z,13.32
2019-04-21T02:07:03.155Z,13.32
2019-04-21T02:09:38.134Z,13.27
2019-04-21T02:12:09.761Z,13.26
2019-04-21T02:14:45.665Z,13.20
2019-04-21T02:17:13.198Z,13.20
2019-04-21T02:19:39.620Z,13.17
2019-04-21T02:22:12.546Z,13.11
2019-04-21T02:24:49.924Z,13.04
2019-04-21T02:27:21.815Z,13.03
2019-04-21T02:29:55.149Z,12.98
2019-04-21T02:32:38.913Z,13.00
2019-04-21T02:35:14.171Z,12.99
2019-04-21T02:42:38.014Z,12.96
2019-04-21T02:45:14.590Z,12.95
2019-04-21T02:47:48.585Z,12.88
2019-04-21T02:50:21.274Z,12.82
2019-04-21T02:52:43.902Z,12.81
2019-04-21T02:55:17.985Z,12.84
2019-04-21T02:57:49.449Z,12.92
2019-04-21T03:00:34.614Z,12.93
2019-04-21T03:08:37.916Z,12.90
2019-04-21T03:10:45.584Z,12.82
2019-04-21T03:13:21.753Z,12.75
2019-04-21T03:15:47.387Z,12.76
2019-04-21T03:18:26.601Z,12.75
2019-04-21T03:21:03.138Z,12.73
2019-04-21T03:25:59.062Z,12.69
2019-04-21T03:28:30.201Z,12.61
2019-04-21T03:31:32.068Z,12.57
2019-04-21T03:36:33.209Z,12.50
2019-04-21T03:38:37.424Z,12.56
2019-04-21T03:41:04.628Z,12.60
2019-04-21T03:43:40.169Z,12.64
2019-04-21T03:46:05.950Z,12.63
2019-04-21T03:48:40.890Z,12.61
2019-04-21T03:53:55.890Z,12.67
2019-04-21T03:56:46.957Z,12.65
2019-04-21T03:58:58.628Z,12.65
2019-04-21T04:01:38.579Z,12.66
2019-04-21T04:07:18.608Z,12.55
2019-04-21T04:09:44.518Z,12.52
2019-04-21T04:12:12.504Z,12.50
2019-04-21T04:14:47.344Z,12.44
2019-04-21T04:19:45.382Z,12.43
2019-04-21T04:24:57.954Z,12.35
2019-04-21T04:29:59.341Z,12.24
2019-04-21T04:32:32.999Z,12.20
2019-04-21T04:35:03.357Z,12.16
2019-04-21T04:37:32.059Z,12.15
2019-04-21T04:42:41.629Z,12.09
2019-04-21T04:49:59.705Z,12.10
2019-04-21T04:52:37.863Z,12.11
2019-04-21T04:55:08.527Z,12.18
2019-04-21T04:57:56.593Z,12.22
2019-04-21T05:00:26.131Z,12.22
2019-04-21T05:07:58.000Z,12.37
2019-04-21T05:10:27.387Z,12.38
2019-04-21T05:12:50.701Z,12.41
2019-04-21T05:15:19.305Z,12.47
2019-04-21T05:17:50.945Z,12.54
2019-04-21T05:20:41.898Z,12.54
2019-04-21T05:22:54.503Z,12.59
2019-04-21T05:25:21.172Z,12.62
2019-04-21T05:27:47.356Z,12.76
2019-04-21T05:30:33.852Z,12.89
2019-04-21T05:33:03.655Z,12.99
2019-04-21T05:35:57.246Z,13.06
2019-04-21T05:38:29.077Z,13.15
2019-04-21T05:40:55.183Z,13.36
2019-04-21T05:43:32.244Z,13.48
2019-04-21T05:46:04.718Z,13.54
2019-04-21T05:48:39.672Z,13.64
2019-04-21T05:51:09.051Z,13.70
2019-04-21T05:53:52.095Z,13.80
2019-04-21T05:56:25.694Z,14.01
2019-04-21T05:58:48.451Z,14.04
2019-04-21T06:01:31.472Z,14.16
2019-04-21T06:04:01.740Z,14.20
2019-04-21T06:06:37.540Z,14.21
2019-04-21T06:09:16.151Z,14.30
2019-04-21T06:11:42.306Z,14.37
2019-04-21T06:14:02.585Z,14.44
2019-04-21T06:16:37.448Z,14.53
2019-04-21T06:19:22.309Z,14.54
2019-04-21T06:21:33.234Z,14.61
2019-04-21T06:24:03.762Z,14.70
2019-04-21T06:29:10.128Z,14.82
2019-04-21T06:34:16.630Z,15.00
2019-04-21T06:37:19.218Z,15.03
2019-04-21T06:39:48.263Z,15.13
2019-04-21T06:42:02.555Z,15.19
2019-04-21T06:44:41.018Z,15.23
2019-04-21T06:47:17.927Z,15.31
2019-04-21T06:49:40.548Z,15.43
2019-04-21T06:52:33.573Z,15.52
2019-04-21T06:54:49.451Z,15.59
2019-04-21T06:57:18.432Z,15.61
2019-04-21T06:59:43.103Z,15.73
2019-04-21T07:07:17.195Z,15.96
2019-04-21T07:09:57.139Z,16.08
2019-04-21T07:12:24.429Z,16.19
2019-04-21T07:14:58.950Z,16.22
2019-04-21T07:17:30.642Z,16.36
2019-04-21T07:22:37.095Z,16.62
2019-04-21T07:25:10.522Z,16.61
2019-04-21T07:27:35.149Z,16.71
2019-04-21T07:30:04.617Z,16.80
2019-04-21T07:32:40.040Z,16.87
2019-04-21T07:35:08.435Z,16.94
2019-04-21T07:37:41.409Z,17.04
2019-04-21T07:40:05.411Z,17.10
2019-04-21T07:42:40.034Z,17.18
2019-04-21T07:45:11.926Z,17.29
2019-04-21T07:47:55.219Z,17.42
2019-04-21T07:50:38.589Z,17.55
2019-04-21T07:53:22.800Z,17.67
2019-04-21T07:55:34.233Z,17.77
2019-04-21T07:58:22.636Z,17.87
2019-04-21T08:00:56.451Z,17.95
2019-04-21T08:03:30.066Z,18.06
2019-04-21T08:05:59.415Z,18.14
2019-04-21T08:08:26.323Z,18.32
2019-04-21T08:10:57.056Z,18.42
2019-04-21T08:13:39.657Z,18.50
2019-04-21T08:16:04.832Z,18.50
2019-04-21T08:18:40.005Z,18.66
2019-04-21T08:21:05.905Z,18.77
2019-04-21T08:23:40.189Z,18.94
2019-04-21T08:26:10.387Z,19.05
2019-04-21T08:28:49.435Z,19.23
2019-04-21T08:31:15.750Z,19.24
2019-04-21T08:36:24.960Z,19.41
2019-04-21T08:38:57.050Z,19.43
2019-04-21T08:41:18.143Z,19.50
2019-04-21T08:43:51.912Z,19.62
2019-04-21T08:46:25.413Z,19.81
2019-04-21T08:48:55.378Z,19.83
2019-04-21T08:54:01.421Z,19.97
2019-04-21T08:56:43.505Z,20.12
2019-04-21T08:59:33.958Z,20.17
2019-04-21T09:02:02.974Z,20.22
2019-04-21T09:04:35.236Z,20.29
2019-04-21T09:07:12.923Z,20.52
2019-04-21T09:09:45.711Z,20.67
2019-04-21T09:12:10.660Z,20.70
2019-04-21T09:14:41.584Z,20.75
2019-04-21T09:17:12.127Z,20.92
2019-04-21T09:20:07.893Z,21.02
2019-04-21T09:22:18.232Z,21.17
2019-04-21T09:24:52.630Z,21.26
2019-04-21T09:27:21.770Z,21.34
2019-04-21T09:29:43.983Z,21.41
2019-04-21T09:32:14.630Z,21.55
2019-04-21T09:34:43.833Z,21.77
2019-04-21T09:37:24.597Z,21.81
2019-04-21T09:39:48.217Z,21.91
2019-04-21T09:42:16.782Z,22.04
2019-04-21T09:44:51.893Z,22.14
2019-04-21T09:47:22.658Z,22.24
2019-04-21T09:49:50.106Z,22.37
2019-04-21T09:52:25.435Z,22.43
2019-04-21T09:55:03.706Z,22.60
2019-04-21T09:57:35.026Z,22.66
2019-04-21T10:00:02.131Z,22.73
2019-04-21T10:02:42.955Z,22.81
2019-04-21T10:05:08.310Z,22.92
2019-04-21T10:07:41.724Z,23.08
2019-04-21T10:10:10.541Z,22.95
2019-04-21T10:12:41.109Z,23.00
2019-04-21T10:15:10.954Z,23.17
2019-04-21T10:17:41.672Z,23.34
2019-04-21T10:20:13.858Z,23.54
2019-04-21T10:22:44.704Z,23.61
2019-04-21T10:25:18.566Z,23.72
2019-04-21T10:27:49.407Z,23.88
2019-04-21T10:30:20.367Z,23.98
2019-04-21T10:32:50.255Z,24.17
2019-04-21T10:35:24.328Z,24.31
2019-04-21T10:38:06.716Z,24.37
2019-04-21T10:40:28.335Z,24.34
2019-04-21T10:42:58.359Z,24.58
2019-04-21T10:45:28.658Z,24.70
2019-04-21T10:47:58.835Z,24.75
2019-04-21T10:50:31.306Z,24.85
2019-04-21T10:53:00.984Z,24.94
2019-04-21T10:55:53.514Z,24.93
2019-04-21T10:58:14.283Z,25.11
2019-04-21T11:00:46.194Z,25.08
2019-04-21T11:03:36.936Z,25.04
2019-04-21T11:06:08.892Z,24.99
2019-04-21T11:08:44.091Z,25.03
2019-04-21T11:11:10.291Z,25.19
2019-04-21T11:13:42.554Z,25.41
2019-04-21T11:16:13.234Z,25.49
2019-04-21T11:18:44.020Z,25.68
2019-04-21T11:21:13.711Z,25.59
2019-04-21T11:23:43.866Z,25.64
2019-04-21T11:26:14.008Z,25.70
2019-04-21T11:28:45.095Z,25.80
2019-04-21T11:31:15.384Z,25.60
2019-04-21T11:33:45.409Z,25.83
2019-04-21T11:36:15.590Z,26.10
2019-04-21T11:39:06.040Z,26.24
2019-04-21T11:41:25.676Z,26.31
2019-04-21T11:43:55.414Z,26.34
2019-04-21T11:46:25.012Z,26.24
2019-04-21T11:48:54.800Z,26.25
2019-04-21T11:51:24.901Z,26.21
2019-04-21T11:53:54.997Z,26.46
2019-04-21T11:56:25.105Z,26.65
2019-04-21T11:58:54.914Z,26.78
2019-04-21T12:01:25.607Z,26.68
2019-04-21T12:03:55.721Z,26.58
2019-04-21T12:06:33.512Z,26.71
2019-04-21T12:09:01.230Z,26.80
2019-04-21T12:11:31.368Z,26.89
2019-04-21T12:14:01.123Z,26.78
2019-04-21T12:16:33.029Z,26.71
2019-04-21T12:19:03.115Z,26.95
2019-04-21T12:21:46.686Z,27.00
2019-04-21T12:24:07.204Z,27.26
2019-04-21T12:26:37.992Z,27.30
2019-04-21T12:29:08.100Z,27.34
2019-04-21T12:31:43.400Z,27.11
2019-04-21T12:34:14.148Z,27.22
2019-04-21T12:36:44.004Z,27.26
2019-04-21T12:39:14.925Z,27.15
2019-04-21T12:41:44.708Z,27.33
2019-04-21T12:44:14.885Z,27.24
2019-04-21T12:46:45.670Z,27.14
2019-04-21T12:49:17.651Z,27.09
2019-04-21T12:51:49.267Z,27.15
2019-04-21T12:54:19.633Z,27.17
2019-04-21T12:56:49.561Z,27.11
2019-04-21T12:59:19.452Z,27.23
2019-04-21T13:01:48.960Z,27.22
2019-04-21T13:04:19.728Z,27.24
2019-04-21T13:06:49.842Z,27.07
2019-04-21T13:09:20.460Z,27.19
2019-04-21T13:11:50.975Z,27.13
2019-04-21T13:14:21.996Z,27.32
2019-04-21T13:16:51.946Z,27.42
2019-04-21T13:19:21.523Z,27.49
2019-04-21T13:21:52.060Z,27.80
2019-04-21T13:24:22.073Z,27.92
2019-04-21T13:26:57.592Z,28.19
2019-04-21T13:29:24.404Z,28.19
2019-04-21T13:31:54.265Z,28.31
2019-04-21T13:34:26.305Z,28.61
2019-04-21T13:36:55.084Z,28.86
2019-04-21T13:39:50.727Z,29.14
2019-04-21T13:42:10.111Z,29.45
2019-04-21T13:44:28.924Z,29.46
2019-04-21T13:47:02.758Z,29.71
2019-04-21T13:49:35.052Z,29.88
2019-04-21T13:52:04.811Z,30.08
2019-04-21T13:54:35.685Z,30.09
2019-04-21T13:57:08.348Z,30.31
2019-04-21T13:59:38.486Z,30.49
2019-04-21T14:02:09.103Z,30.71
2019-04-21T14:04:41.176Z,30.86
2019-04-21T14:07:12.227Z,31.38
2019-04-21T14:09:52.803Z,31.75
2019-04-21T14:12:14.597Z,31.97
2019-04-21T14:14:44.296Z,31.93
2019-04-21T14:17:15.070Z,32.21
2019-04-21T14:19:45.618Z,32.14
2019-04-21T14:22:18.549Z,32.53
2019-04-21T14:24:48.219Z,32.55
2019-04-21T14:27:18.513Z,32.37
2019-04-21T14:29:49.266Z,32.48
2019-04-21T14:32:20.212Z,32.49
2019-04-21T14:34:53.860Z,32.85
2019-04-21T14:37:24.696Z,32.93
2019-04-21T14:40:01.891Z,32.76
2019-04-21T14:42:27.653Z,32.49
2019-04-21T14:44:58.921Z,32.37
2019-04-21T14:47:31.502Z,32.55
2019-04-21T14:50:05.038Z,33.18
2019-04-21T14:52:37.207Z,33.82
2019-04-21T14:55:09.667Z,34.12
2019-04-21T14:57:41.184Z,34.31
2019-04-21T15:00:15.360Z,34.70
2019-04-21T15:02:47.575Z,34.99
2019-04-21T15:05:19.627Z,35.40
2019-04-21T15:07:50.905Z,35.33
2019-04-21T15:10:25.600Z,35.46
2019-04-21T15:12:52.240Z,35.12
2019-04-21T15:15:21.865Z,34.67
2019-04-21T15:17:53.541Z,34.75
2019-04-21T15:20:23.834Z,34.99
2019-04-21T15:22:56.607Z,34.99
2019-04-21T15:25:26.183Z,35.39
2019-04-21T15:27:56.662Z,35.66
2019-04-21T15:30:26.883Z,35.86
2019-04-21T15:32:56.435Z,36.14
2019-04-21T15:35:26.937Z,36.35
2019-04-21T15:37:58.056Z,36.23
2019-04-21T15:40:37.666Z,35.97
2019-04-21T15:43:00.138Z,36.11
2019-04-21T15:45:30.617Z,36.07
2019-04-21T15:48:00.369Z,35.87
2019-04-21T15:50:30.252Z,35.54
2019-04-21T15:53:01.607Z,35.01
2019-04-21T15:55:41.894Z,34.43
2019-04-21T15:58:12.318Z,33.68
2019-04-21T16:00:42.678Z,33.28
2019-04-21T16:03:12.965Z,33.17
2019-04-21T16:05:42.729Z,32.86
2019-04-21T16:08:14.231Z,32.57
2019-04-21T16:10:50.136Z,32.50
2019-04-21T16:13:16.044Z,32.24
2019-04-21T16:15:46.604Z,32.11
2019-04-21T16:18:18.275Z,31.85
2019-04-21T16:20:50.139Z,31.68
2019-04-21T16:23:22.557Z,31.44
2019-04-21T16:25:54.707Z,31.08
2019-04-21T16:28:23.690Z,30.73
2019-04-21T16:30:54.344Z,30.31
2019-04-21T16:33:25.123Z,30.16
2019-04-21T16:35:56.021Z,29.87
2019-04-21T16:38:25.863Z,29.74
2019-04-21T16:41:00.980Z,29.59
2019-04-21T16:43:29.118Z,29.55
2019-04-21T16:45:59.228Z,29.40
2019-04-21T16:48:28.946Z,29.18
2019-04-21T16:50:59.564Z,28.91
2019-04-21T16:53:32.198Z,28.71
2019-04-21T16:56:06.966Z,28.57
2019-04-21T16:58:38.869Z,28.29
2019-04-21T17:01:23.757Z,27.98
2019-04-21T17:03:54.669Z,27.61
2019-04-21T17:06:24.975Z,27.39
2019-04-21T17:08:56.803Z,27.26
2019-04-21T17:11:33.104Z,27.13
2019-04-21T17:14:00.480Z,26.90
2019-04-21T17:17:08.724Z,26.79
2019-04-21T17:19:12.793Z,26.68
2019-04-21T17:21:34.250Z,26.46
2019-04-21T17:24:06.439Z,26.25
2019-04-21T17:26:39.008Z,25.88
2019-04-21T17:29:06.909Z,25.49
2019-04-21T17:31:39.231Z,25.32
2019-04-21T17:34:14.531Z,25.05
2019-04-21T17:36:41.130Z,24.74
2019-04-21T17:39:13.058Z,24.47
2019-04-21T17:41:59.132Z,24.33
2019-04-21T17:44:15.160Z,24.10
2019-04-21T17:46:53.750Z,23.88
2019-04-21T17:49:18.925Z,23.77
2019-04-21T17:51:55.156Z,23.63
2019-04-21T17:54:35.814Z,23.44
2019-04-21T17:57:24.453Z,23.23
2019-04-21T18:02:31.079Z,22.88
2019-04-21T18:05:03.647Z,22.69
2019-04-21T18:07:31.623Z,22.59
2019-04-21T18:10:10.103Z,22.46
2019-04-21T18:12:33.649Z,22.26
2019-04-21T18:15:00.084Z,22.06
2019-04-21T18:17:24.631Z,22.01
2019-04-21T18:19:57.211Z,21.71
2019-04-21T18:22:41.148Z,21.56
2019-04-21T18:25:27.114Z,21.42
2019-04-21T18:27:44.813Z,21.23
2019-04-21T18:30:52.408Z,21.09
2019-04-21T18:33:30.003Z,20.96
2019-04-21T18:35:58.613Z,20.79
2019-04-21T18:38:57.166Z,20.71
2019-04-21T18:41:13.253Z,20.55
2019-04-21T18:44:23.195Z,20.48
2019-04-21T18:46:49.103Z,20.38
2019-04-21T18:49:02.867Z,20.26
2019-04-21T18:51:59.627Z,20.14
2019-04-21T18:54:41.350Z,19.94
2019-04-21T18:57:08.187Z,19.83
2019-04-21T18:59:36.095Z,19.77
2019-04-21T19:02:06.328Z,19.65
2019-04-21T19:04:35.177Z,19.59
2019-04-21T19:07:18.105Z,19.52
2019-04-21T19:12:36.648Z,19.33
2019-04-21T19:14:55.050Z,19.29
2019-04-21T19:18:12.457Z,19.22
2019-04-21T19:20:10.616Z,19.18
2019-04-21T19:22:32.853Z,19.14
2019-04-21T19:25:05.440Z,19.03
2019-04-21T19:27:37.569Z,18.97
2019-04-21T19:30:12.026Z,18.96
2019-04-21T19:32:33.466Z,18.90
2019-04-21T19:34:57.166Z,18.83
2019-04-21T19:37:27.867Z,18.77
2019-04-21T19:40:09.641Z,18.70
2019-04-21T19:42:37.564Z,18.61
2019-04-21T19:45:16.535Z,18.55
2019-04-21T19:47:50.397Z,18.51
2019-04-21T19:50:25.994Z,18.52
2019-04-21T19:52:43.935Z,18.45
2019-04-21T19:55:09.792Z,18.42
2019-04-21T19:57:40.980Z,18.32
2019-04-21T20:00:12.062Z,18.24
2019-04-21T20:02:44.800Z,18.23
2019-04-21T20:05:24.029Z,18.18
2019-04-21T20:08:05.435Z,18.11
2019-04-21T20:10:44.146Z,18.02
2019-04-21T20:13:07.192Z,17.95
2019-04-21T20:15:41.947Z,17.90
2019-04-21T20:18:04.748Z,17.89
2019-04-21T20:20:23.018Z,17.87
2019-04-21T20:22:54.250Z,17.87
2019-04-21T20:25:25.673Z,17.84
2019-04-21T20:28:05.508Z,17.80
2019-04-21T20:30:42.663Z,17.74
2019-04-21T20:36:15.059Z,17.77
2019-04-21T20:38:15.656Z,17.73
2019-04-21T20:40:45.361Z,17.75
2019-04-21T20:43:26.945Z,17.72
2019-04-21T20:46:00.620Z,17.72
2019-04-21T20:48:18.026Z,17.71
2019-04-21T20:51:02.700Z,17.63
2019-04-21T20:53:26.206Z,17.58
2019-04-21T20:55:58.157Z,17.50
2019-04-21T20:58:33.879Z,17.48
2019-04-21T21:01:28.215Z,17.47
2019-04-21T21:03:40.773Z,17.41
2019-04-21T21:06:07.646Z,17.42
2019-04-21T21:08:40.260Z,17.40
2019-04-21T21:11:07.995Z,17.38
2019-04-21T21:13:42.835Z,17.44
2019-04-21T21:16:36.948Z,17.47
2019-04-21T21:19:03.754Z,17.45
2019-04-21T21:21:15.311Z,17.51
2019-04-21T21:23:48.040Z,17.54
2019-04-21T21:26:25.632Z,17.55
2019-04-21T21:28:45.962Z,17.55
2019-04-21T21:31:25.086Z,17.56
2019-04-21T21:36:26.622Z,17.57
2019-04-21T21:39:01.365Z,17.51
2019-04-21T21:41:23.471Z,17.50
2019-04-21T21:43:47.896Z,17.51
2019-04-21T21:46:37.181Z,17.48
2019-04-21T21:48:56.290Z,17.46
2019-04-21T21:51:33.156Z,17.41
2019-04-21T21:53:50.705Z,17.45
2019-04-21T21:56:20.624Z,17.36
2019-04-21T21:58:51.973Z,17.35
2019-04-21T22:01:35.678Z,17.40
2019-04-21T22:04:02.943Z,17.45
2019-04-21T22:06:34.207Z,17.42
2019-04-21T22:08:56.689Z,17.40
2019-04-21T22:11:26.368Z,17.34
2019-04-21T22:14:04.218Z,17.32
2019-04-21T22:16:43.198Z,17.23
2019-04-21T22:19:19.310Z,17.16
2019-04-21T22:21:53.815Z,17.13
2019-04-21T22:24:09.464Z,17.01
2019-04-21T22:26:36.971Z,17.05
2019-04-21T22:29:07.797Z,16.95
2019-04-21T22:31:40.822Z,16.99
2019-04-21T22:34:12.641Z,16.94
2019-04-21T22:36:48.462Z,16.94
2019-04-21T22:39:28.527Z,16.86
2019-04-21T22:41:48.468Z,16.83
2019-04-21T22:44:20.725Z,16.80
2019-04-21T22:47:02.932Z,16.76
2019-04-21T22:49:23.733Z,16.69
2019-04-21T22:51:55.705Z,16.68
2019-04-21T22:54:31.923Z,16.63
2019-04-21T22:57:04.547Z,16.63
2019-04-21T22:59:30.119Z,16.52
2019-04-21T23:02:06.355Z,16.54
2019-04-21T23:04:41.804Z,16.45
2019-04-21T23:07:10.165Z,16.48
2019-04-21T23:09:37.768Z,16.48
2019-04-21T23:12:08.046Z,16.49
2019-04-21T23:14:47.463Z,16.52
2019-04-21T23:17:29.280Z,16.50
2019-04-21T23:20:02.793Z,16.46
2019-04-21T23:22:32.026Z,16.45
2019-04-21T23:25:08.778Z,16.45
2019-04-21T23:27:34.350Z,16.44
2019-04-21T23:30:17.712Z,16.33
2019-04-21T23:32:33.847Z,16.36
2019-04-21T23:34:53.940Z,16.30
2019-04-21T23:37:25.643Z,16.30
2019-04-21T23:40:04.181Z,16.23
2019-04-21T23:42:31.907Z,16.24
2019-04-21T23:45:01.246Z,16.24
2019-04-21T23:47:45.591Z,16.25
2019-04-21T23:50:15.852Z,16.25
2019-04-21T23:52:32.788Z,16.20
2019-04-21T23:55:03.311Z,16.20
2019-04-21T23:57:39.681Z,16.17
